Terminal Aerodrome Forecast
Issued by NWS Paducah, KY

Home | Current Version | Previous Version | Graphics & Text | Print | Product List | Glossary On
Versions: 1 2 3 4 5 6 7 8 9 10 11 12 13 14 15 16 17 18 19 20 21 22 23 24 25 26 27 28
423
FTUS43 KPAH 161532 AAD
TAFPAH
TAF AMD
KPAH 161532Z 1616/1712 14004KT P6SM VCSH SCT015 OVC060
      TEMPO 1616/1620 5SM -SHRA BR OVC015
     FM162300 17012KT 3SM -SHRA BR VCTS OVC010CB
      TEMPO 1701/1705 2SM -TSRA BR OVC008CB
     FM170900 23010KT 4SM BR OVC012=

USA.gov is the U.S. government's official web portal to all federal, state and local government web resources and services.